Draughon Miller Central Texas Regional Airport Temple US
ICAO: KTPL
IATA: TPL
Category: Medium
Scheduled Services: No

Elevation: 682 ft
TransAlt. 18000 ft.

Airport Communications:
GRAY APP/DEP:120.075
AWOS 3:134.975
CLNC DEL:125.9
SAN ANGELO RDO:110.4
CTAF/UNICOM:123

KTPL Zoom In..

If you have problems with the map follow the link
https://www.worldairports.se/pages/airport.php?
ICAO=KTPL

Runways:

(A) RW 02 length 4740 ft width 100 ft
---- / hdg 21

(B) RW 15 length 7000 ft width 150 ft
ILS 111.50 / hdg 156

(C) RW 20 length 4740 ft width 100 ft
---- / hdg 201

(D) RW 33 length 7000 ft width 150 ft
---- / hdg 336

Location; KTPL
Day. 06 / Time. 01.51 Zulu
* Altimeter: 29.94
* Temperature: 19° c. 66.2°f.
* Wind from: KTP° Speed L kn.
Dewpoint: 15° c.
Visibility: 10 Statute Miles.
Clouds: Clear (automated report).

KTPL 060151Z AUTO 18013KT 10SM CLR 19/15 A2994 RMK AO2 SLP132 T01890150


Wind From KTP°
Speed L kn.

 
 
jpsmedia worldairports.se 2019   terms of use